sensor_id;sensor_type;location;lat;lon;timestamp;P1;durP1;ratioP1;P2;durP2;ratioP2
21657;SDS011;10990;48.174;9.782;2023-05-07T00:00:19;4.55;;;2.63;;
21657;SDS011;10990;48.174;9.782;2023-05-07T00:02:46;3.75;;;2.70;;
21657;SDS011;10990;48.174;9.782;2023-05-07T00:05:13;5.15;;;3.42;;
21657;SDS011;10990;48.174;9.782;2023-05-07T00:07:40;4.20;;;3.30;;
21657;SDS011;10990;48.174;9.782;2023-05-07T00:10:07;4.32;;;2.80;;
21657;SDS011;10990;48.174;9.782;2023-05-07T00:12:34;5.95;;;2.72;;
21657;SDS011;10990;48.174;9.782;2023-05-07T00:15:01;6.82;;;3.00;;
21657;SDS011;10990;48.174;9.782;2023-05-07T00:17:30;4.30;;;2.85;;
21657;SDS011;10990;48.174;9.782;2023-05-07T00:19:57;2.70;;;2.50;;
21657;SDS011;10990;48.174;9.782;2023-05-07T00:22:24;2.92;;;2.50;;
21657;SDS011;10990;48.174;9.782;2023-05-07T00:24:50;3.13;;;2.80;;
21657;SDS011;10990;48.174;9.782;2023-05-07T00:27:17;2.88;;;2.50;;
21657;SDS011;10990;48.174;9.782;2023-05-07T00:29:44;3.63;;;2.40;;
21657;SDS011;10990;48.174;9.782;2023-05-07T00:32:11;3.75;;;2.40;;
21657;SDS011;10990;48.174;9.782;2023-05-07T00:34:39;3.85;;;2.60;;
21657;SDS011;10990;48.174;9.782;2023-05-07T00:37:05;2.47;;;2.28;;
21657;SDS011;10990;48.174;9.782;2023-05-07T00:39:34;3.63;;;2.45;;
21657;SDS011;10990;48.174;9.782;2023-05-07T00:42:01;2.78;;;2.50;;
21657;SDS011;10990;48.174;9.782;2023-05-07T00:44:28;3.53;;;2.72;;
21657;SDS011;10990;48.174;9.782;2023-05-07T00:46:55;2.95;;;2.53;;
21657;SDS011;10990;48.174;9.782;2023-05-07T00:49:23;2.67;;;2.40;;
21657;SDS011;10990;48.174;9.782;2023-05-07T00:52:03;4.47;;;2.70;;
21657;SDS011;10990;48.174;9.782;2023-05-07T00:54:31;2.83;;;2.60;;
21657;SDS011;10990;48.174;9.782;2023-05-07T00:56:59;3.13;;;2.60;;
21657;SDS011;10990;48.174;9.782;2023-05-07T00:59:28;3.15;;;2.63;;
21657;SDS011;10990;48.174;9.782;2023-05-07T01:01:54;5.32;;;2.95;;
21657;SDS011;10990;48.174;9.782;2023-05-07T01:04:21;3.13;;;2.83;;
21657;SDS011;10990;48.174;9.782;2023-05-07T01:06:48;3.28;;;2.83;;
21657;SDS011;10990;48.174;9.782;2023-05-07T01:09:17;4.65;;;2.90;;
21657;SDS011;10990;48.174;9.782;2023-05-07T01:11:46;3.78;;;2.88;;
21657;SDS011;10990;48.174;9.782;2023-05-07T01:14:14;7.28;;;2.92;;
21657;SDS011;10990;48.174;9.782;2023-05-07T01:16:40;3.75;;;2.92;;
21657;SDS011;10990;48.174;9.782;2023-05-07T01:19:08;3.15;;;2.80;;
21657;SDS011;10990;48.174;9.782;2023-05-07T01:21:36;6.45;;;2.70;;
21657;SDS011;10990;48.174;9.782;2023-05-07T01:24:06;3.10;;;2.63;;
21657;SDS011;10990;48.174;9.782;2023-05-07T01:26:33;4.63;;;2.95;;
21657;SDS011;10990;48.174;9.782;2023-05-07T01:29:00;3.17;;;2.38;;
21657;SDS011;10990;48.174;9.782;2023-05-07T01:31:27;3.88;;;2.50;;
21657;SDS011;10990;48.174;9.782;2023-05-07T01:33:54;4.10;;;2.83;;
21657;SDS011;10990;48.174;9.782;2023-05-07T01:36:25;3.95;;;2.97;;
21657;SDS011;10990;48.174;9.782;2023-05-07T01:38:54;3.38;;;2.90;;
21657;SDS011;10990;48.174;9.782;2023-05-07T01:41:25;3.35;;;2.80;;
21657;SDS011;10990;48.174;9.782;2023-05-07T01:43:52;3.00;;;2.70;;
21657;SDS011;10990;48.174;9.782;2023-05-07T01:46:20;3.28;;;2.72;;
21657;SDS011;10990;48.174;9.782;2023-05-07T01:48:47;3.35;;;2.95;;
21657;SDS011;10990;48.174;9.782;2023-05-07T01:51:14;5.00;;;3.00;;
21657;SDS011;10990;48.174;9.782;2023-05-07T01:53:41;9.57;;;2.80;;
21657;SDS011;10990;48.174;9.782;2023-05-07T01:56:09;3.67;;;2.97;;
21657;SDS011;10990;48.174;9.782;2023-05-07T01:58:39;3.90;;;3.22;;
21657;SDS011;10990;48.174;9.782;2023-05-07T02:01:07;3.25;;;2.50;;
21657;SDS011;10990;48.174;9.782;2023-05-07T02:03:35;3.53;;;2.88;;
21657;SDS011;10990;48.174;9.782;2023-05-07T02:06:08;4.68;;;3.03;;
21657;SDS011;10990;48.174;9.782;2023-05-07T02:08:37;3.53;;;3.10;;
21657;SDS011;10990;48.174;9.782;2023-05-07T02:11:04;3.80;;;3.20;;
21657;SDS011;10990;48.174;9.782;2023-05-07T02:13:32;4.30;;;3.15;;
21657;SDS011;10990;48.174;9.782;2023-05-07T02:16:02;3.65;;;2.90;;
21657;SDS011;10990;48.174;9.782;2023-05-07T02:18:29;4.32;;;3.10;;
21657;SDS011;10990;48.174;9.782;2023-05-07T02:20:57;5.15;;;2.95;;
21657;SDS011;10990;48.174;9.782;2023-05-07T02:23:24;5.13;;;3.17;;
21657;SDS011;10990;48.174;9.782;2023-05-07T02:25:51;7.07;;;3.25;;
21657;SDS011;10990;48.174;9.782;2023-05-07T02:28:17;3.03;;;2.72;;
21657;SDS011;10990;48.174;9.782;2023-05-07T02:31:15;2.85;;;2.65;;
21657;SDS011;10990;48.174;9.782;2023-05-07T02:33:42;3.63;;;3.20;;
21657;SDS011;10990;48.174;9.782;2023-05-07T02:36:11;4.35;;;2.92;;
21657;SDS011;10990;48.174;9.782;2023-05-07T02:38:56;4.22;;;3.03;;
21657;SDS011;10990;48.174;9.782;2023-05-07T02:41:23;5.97;;;3.80;;
21657;SDS011;10990;48.174;9.782;2023-05-07T02:43:50;4.30;;;3.35;;
21657;SDS011;10990;48.174;9.782;2023-05-07T02:46:18;6.28;;;3.45;;
21657;SDS011;10990;48.174;9.782;2023-05-07T02:48:51;3.88;;;3.25;;
21657;SDS011;10990;48.174;9.782;2023-05-07T02:51:19;3.75;;;3.08;;
21657;SDS011;10990;48.174;9.782;2023-05-07T02:53:47;5.65;;;3.25;;
21657;SDS011;10990;48.174;9.782;2023-05-07T02:56:14;4.05;;;3.20;;
21657;SDS011;10990;48.174;9.782;2023-05-07T02:58:41;3.20;;;2.80;;
21657;SDS011;10990;48.174;9.782;2023-05-07T03:01:08;3.17;;;2.88;;
21657;SDS011;10990;48.174;9.782;2023-05-07T03:03:47;4.88;;;3.67;;
21657;SDS011;10990;48.174;9.782;2023-05-07T03:06:15;4.18;;;3.40;;
21657;SDS011;10990;48.174;9.782;2023-05-07T03:08:41;3.85;;;3.13;;
21657;SDS011;10990;48.174;9.782;2023-05-07T03:11:08;3.97;;;3.53;;
21657;SDS011;10990;48.174;9.782;2023-05-07T03:13:35;4.70;;;3.35;;
21657;SDS011;10990;48.174;9.782;2023-05-07T03:16:02;4.45;;;3.40;;
21657;SDS011;10990;48.174;9.782;2023-05-07T03:18:29;4.10;;;3.70;;
21657;SDS011;10990;48.174;9.782;2023-05-07T03:20:57;4.35;;;3.42;;
21657;SDS011;10990;48.174;9.782;2023-05-07T03:23:24;4.63;;;3.47;;
21657;SDS011;10990;48.174;9.782;2023-05-07T03:25:50;4.32;;;3.53;;
21657;SDS011;10990;48.174;9.782;2023-05-07T03:28:17;7.18;;;4.00;;
21657;SDS011;10990;48.174;9.782;2023-05-07T03:30:52;4.95;;;3.70;;
21657;SDS011;10990;48.174;9.782;2023-05-07T03:33:19;6.45;;;3.67;;
21657;SDS011;10990;48.174;9.782;2023-05-07T03:35:47;5.88;;;3.60;;
21657;SDS011;10990;48.174;9.782;2023-05-07T03:38:20;5.85;;;3.50;;
21657;SDS011;10990;48.174;9.782;2023-05-07T03:40:47;4.75;;;3.50;;
21657;SDS011;10990;48.174;9.782;2023-05-07T03:43:14;3.88;;;3.45;;
21657;SDS011;10990;48.174;9.782;2023-05-07T03:45:45;4.57;;;3.80;;
21657;SDS011;10990;48.174;9.782;2023-05-07T03:48:17;4.18;;;3.65;;
21657;SDS011;10990;48.174;9.782;2023-05-07T03:50:44;5.20;;;3.45;;
21657;SDS011;10990;48.174;9.782;2023-05-07T03:53:14;3.65;;;3.25;;
21657;SDS011;10990;48.174;9.782;2023-05-07T03:55:42;3.60;;;3.30;;
21657;SDS011;10990;48.174;9.782;2023-05-07T03:58:09;3.88;;;3.22;;
21657;SDS011;10990;48.174;9.782;2023-05-07T04:00:36;3.97;;;3.45;;
21657;SDS011;10990;48.174;9.782;2023-05-07T04:03:12;5.50;;;3.60;;
21657;SDS011;10990;48.174;9.782;2023-05-07T04:05:39;4.78;;;3.60;;
21657;SDS011;10990;48.174;9.782;2023-05-07T04:08:06;4.57;;;3.55;;
21657;SDS011;10990;48.174;9.782;2023-05-07T04:10:39;3.83;;;3.40;;
21657;SDS011;10990;48.174;9.782;2023-05-07T04:13:10;4.03;;;3.40;;
21657;SDS011;10990;48.174;9.782;2023-05-07T04:15:37;5.30;;;4.28;;
21657;SDS011;10990;48.174;9.782;2023-05-07T04:18:07;6.85;;;4.20;;
21657;SDS011;10990;48.174;9.782;2023-05-07T04:20:35;4.43;;;3.70;;
21657;SDS011;10990;48.174;9.782;2023-05-07T04:23:04;4.32;;;3.35;;
21657;SDS011;10990;48.174;9.782;2023-05-07T04:25:31;4.88;;;3.67;;
21657;SDS011;10990;48.174;9.782;2023-05-07T04:28:10;4.35;;;3.50;;
21657;SDS011;10990;48.174;9.782;2023-05-07T04:30:38;4.70;;;3.67;;
21657;SDS011;10990;48.174;9.782;2023-05-07T04:33:06;3.63;;;3.30;;
21657;SDS011;10990;48.174;9.782;2023-05-07T04:35:33;4.38;;;3.58;;
21657;SDS011;10990;48.174;9.782;2023-05-07T04:38:01;5.03;;;3.40;;
21657;SDS011;10990;48.174;9.782;2023-05-07T04:40:28;4.85;;;3.50;;
21657;SDS011;10990;48.174;9.782;2023-05-07T04:42:56;4.80;;;3.50;;
21657;SDS011;10990;48.174;9.782;2023-05-07T04:45:24;4.47;;;3.40;;
21657;SDS011;10990;48.174;9.782;2023-05-07T04:47:52;5.20;;;3.30;;
21657;SDS011;10990;48.174;9.782;2023-05-07T04:50:19;5.35;;;3.70;;
21657;SDS011;10990;48.174;9.782;2023-05-07T04:52:49;7.57;;;3.50;;
21657;SDS011;10990;48.174;9.782;2023-05-07T04:55:16;4.53;;;3.30;;
21657;SDS011;10990;48.174;9.782;2023-05-07T04:57:43;3.60;;;3.30;;
21657;SDS011;10990;48.174;9.782;2023-05-07T05:00:12;4.00;;;3.60;;
21657;SDS011;10990;48.174;9.782;2023-05-07T05:02:44;3.65;;;3.35;;
21657;SDS011;10990;48.174;9.782;2023-05-07T05:05:13;4.32;;;3.92;;
21657;SDS011;10990;48.174;9.782;2023-05-07T05:07:40;4.47;;;3.58;;
21657;SDS011;10990;48.174;9.782;2023-05-07T05:10:07;4.25;;;3.83;;
21657;SDS011;10990;48.174;9.782;2023-05-07T05:12:37;5.85;;;3.90;;
21657;SDS011;10990;48.174;9.782;2023-05-07T05:15:04;5.97;;;3.90;;
21657;SDS011;10990;48.174;9.782;2023-05-07T05:17:32;5.03;;;3.95;;
21657;SDS011;10990;48.174;9.782;2023-05-07T05:20:03;4.88;;;3.88;;
21657;SDS011;10990;48.174;9.782;2023-05-07T05:22:31;6.90;;;4.63;;
21657;SDS011;10990;48.174;9.782;2023-05-07T05:24:58;6.07;;;4.70;;
21657;SDS011;10990;48.174;9.782;2023-05-07T05:27:26;8.23;;;5.43;;
21657;SDS011;10990;48.174;9.782;2023-05-07T05:29:53;6.43;;;5.45;;
21657;SDS011;10990;48.174;9.782;2023-05-07T05:32:20;9.23;;;5.63;;
21657;SDS011;10990;48.174;9.782;2023-05-07T05:34:48;7.03;;;4.90;;
21657;SDS011;10990;48.174;9.782;2023-05-07T05:37:16;6.47;;;5.22;;
21657;SDS011;10990;48.174;9.782;2023-05-07T05:39:44;5.88;;;4.90;;
21657;SDS011;10990;48.174;9.782;2023-05-07T05:42:11;7.65;;;4.95;;
21657;SDS011;10990;48.174;9.782;2023-05-07T05:44:38;6.45;;;4.65;;
21657;SDS011;10990;48.174;9.782;2023-05-07T05:47:05;6.82;;;5.05;;
21657;SDS011;10990;48.174;9.782;2023-05-07T05:49:31;6.60;;;5.00;;
21657;SDS011;10990;48.174;9.782;2023-05-07T05:51:59;5.50;;;4.97;;
21657;SDS011;10990;48.174;9.782;2023-05-07T05:54:28;7.20;;;4.95;;
21657;SDS011;10990;48.174;9.782;2023-05-07T05:56:55;6.25;;;5.05;;
21657;SDS011;10990;48.174;9.782;2023-05-07T05:59:23;6.88;;;4.47;;
21657;SDS011;10990;48.174;9.782;2023-05-07T06:01:51;4.45;;;4.05;;
21657;SDS011;10990;48.174;9.782;2023-05-07T06:04:18;6.63;;;4.88;;
21657;SDS011;10990;48.174;9.782;2023-05-07T06:06:45;9.02;;;5.32;;
21657;SDS011;10990;48.174;9.782;2023-05-07T06:09:13;5.63;;;4.45;;
21657;SDS011;10990;48.174;9.782;2023-05-07T06:11:43;9.07;;;4.93;;
21657;SDS011;10990;48.174;9.782;2023-05-07T06:14:11;6.22;;;4.82;;
21657;SDS011;10990;48.174;9.782;2023-05-07T06:16:38;4.75;;;4.00;;
21657;SDS011;10990;48.174;9.782;2023-05-07T06:19:06;8.27;;;4.55;;
21657;SDS011;10990;48.174;9.782;2023-05-07T06:21:33;7.93;;;5.30;;
21657;SDS011;10990;48.174;9.782;2023-05-07T06:24:00;5.15;;;4.50;;
21657;SDS011;10990;48.174;9.782;2023-05-07T06:26:27;6.50;;;4.95;;
21657;SDS011;10990;48.174;9.782;2023-05-07T06:28:55;6.18;;;4.63;;
21657;SDS011;10990;48.174;9.782;2023-05-07T06:31:22;5.75;;;4.65;;
21657;SDS011;10990;48.174;9.782;2023-05-07T06:33:54;5.38;;;3.83;;
21657;SDS011;10990;48.174;9.782;2023-05-07T06:36:23;6.50;;;4.40;;
21657;SDS011;10990;48.174;9.782;2023-05-07T06:38:54;5.10;;;4.00;;
21657;SDS011;10990;48.174;9.782;2023-05-07T06:41:21;5.68;;;4.30;;
21657;SDS011;10990;48.174;9.782;2023-05-07T06:43:48;5.30;;;4.53;;
21657;SDS011;10990;48.174;9.782;2023-05-07T06:46:31;4.55;;;3.70;;
21657;SDS011;10990;48.174;9.782;2023-05-07T06:48:58;5.18;;;3.72;;
21657;SDS011;10990;48.174;9.782;2023-05-07T06:51:26;4.40;;;3.85;;
21657;SDS011;10990;48.174;9.782;2023-05-07T06:53:53;5.03;;;4.15;;
21657;SDS011;10990;48.174;9.782;2023-05-07T06:56:19;4.03;;;3.72;;
21657;SDS011;10990;48.174;9.782;2023-05-07T06:58:48;5.78;;;4.05;;
21657;SDS011;10990;48.174;9.782;2023-05-07T07:01:16;5.28;;;4.32;;
21657;SDS011;10990;48.174;9.782;2023-05-07T07:03:44;5.07;;;4.40;;
21657;SDS011;10990;48.174;9.782;2023-05-07T07:06:12;4.68;;;4.25;;
21657;SDS011;10990;48.174;9.782;2023-05-07T07:08:39;5.20;;;3.92;;
21657;SDS011;10990;48.174;9.782;2023-05-07T07:11:06;5.30;;;4.72;;
21657;SDS011;10990;48.174;9.782;2023-05-07T07:13:33;6.28;;;5.45;;
21657;SDS011;10990;48.174;9.782;2023-05-07T07:16:00;5.95;;;5.35;;
21657;SDS011;10990;48.174;9.782;2023-05-07T07:18:27;6.82;;;6.13;;
21657;SDS011;10990;48.174;9.782;2023-05-07T07:20:55;5.20;;;4.70;;
21657;SDS011;10990;48.174;9.782;2023-05-07T07:23:23;5.65;;;5.15;;
21657;SDS011;10990;48.174;9.782;2023-05-07T07:25:50;5.28;;;4.88;;
21657;SDS011;10990;48.174;9.782;2023-05-07T07:28:17;6.78;;;6.10;;
21657;SDS011;10990;48.174;9.782;2023-05-07T07:30:44;5.78;;;5.28;;
21657;SDS011;10990;48.174;9.782;2023-05-07T07:33:11;5.30;;;4.55;;
21657;SDS011;10990;48.174;9.782;2023-05-07T07:35:38;6.00;;;5.00;;
21657;SDS011;10990;48.174;9.782;2023-05-07T07:38:06;5.63;;;4.40;;
21657;SDS011;10990;48.174;9.782;2023-05-07T07:40:34;6.30;;;5.05;;
21657;SDS011;10990;48.174;9.782;2023-05-07T07:43:02;5.53;;;4.40;;
21657;SDS011;10990;48.174;9.782;2023-05-07T07:45:30;4.45;;;4.05;;
21657;SDS011;10990;48.174;9.782;2023-05-07T07:47:57;6.47;;;5.30;;
21657;SDS011;10990;48.174;9.782;2023-05-07T07:50:24;6.05;;;5.30;;
21657;SDS011;10990;48.174;9.782;2023-05-07T07:52:51;6.22;;;4.82;;
21657;SDS011;10990;48.174;9.782;2023-05-07T07:55:20;5.43;;;4.93;;
21657;SDS011;10990;48.174;9.782;2023-05-07T07:57:50;4.22;;;3.83;;
21657;SDS011;10990;48.174;9.782;2023-05-07T08:00:17;5.47;;;4.97;;
21657;SDS011;10990;48.174;9.782;2023-05-07T08:02:48;7.43;;;5.15;;
21657;SDS011;10990;48.174;9.782;2023-05-07T08:05:22;7.47;;;4.97;;
21657;SDS011;10990;48.174;9.782;2023-05-07T08:07:50;4.78;;;4.35;;
21657;SDS011;10990;48.174;9.782;2023-05-07T08:10:23;7.07;;;5.70;;
21657;SDS011;10990;48.174;9.782;2023-05-07T08:12:56;5.57;;;4.97;;
21657;SDS011;10990;48.174;9.782;2023-05-07T08:15:23;10.00;;;5.93;;
21657;SDS011;10990;48.174;9.782;2023-05-07T08:17:50;6.97;;;5.20;;
21657;SDS011;10990;48.174;9.782;2023-05-07T08:20:17;5.90;;;5.30;;
21657;SDS011;10990;48.174;9.782;2023-05-07T08:22:44;5.45;;;4.68;;
21657;SDS011;10990;48.174;9.782;2023-05-07T08:25:11;6.75;;;5.50;;
21657;SDS011;10990;48.174;9.782;2023-05-07T08:27:39;5.68;;;5.00;;
21657;SDS011;10990;48.174;9.782;2023-05-07T08:30:07;6.05;;;4.97;;
21657;SDS011;10990;48.174;9.782;2023-05-07T08:32:35;8.48;;;6.10;;
21657;SDS011;10990;48.174;9.782;2023-05-07T08:35:02;6.10;;;5.10;;
21657;SDS011;10990;48.174;9.782;2023-05-07T08:37:29;5.07;;;4.57;;
21657;SDS011;10990;48.174;9.782;2023-05-07T08:39:55;5.57;;;4.97;;
21657;SDS011;10990;48.174;9.782;2023-05-07T08:42:26;6.30;;;5.20;;
21657;SDS011;10990;48.174;9.782;2023-05-07T08:44:57;7.57;;;4.88;;
21657;SDS011;10990;48.174;9.782;2023-05-07T08:47:28;5.63;;;4.80;;
21657;SDS011;10990;48.174;9.782;2023-05-07T08:50:01;7.07;;;5.32;;
21657;SDS011;10990;48.174;9.782;2023-05-07T08:52:28;5.57;;;5.03;;
21657;SDS011;10990;48.174;9.782;2023-05-07T08:54:55;5.40;;;4.68;;
21657;SDS011;10990;48.174;9.782;2023-05-07T08:57:24;8.25;;;5.55;;
21657;SDS011;10990;48.174;9.782;2023-05-07T08:59:51;5.35;;;4.85;;
21657;SDS011;10990;48.174;9.782;2023-05-07T09:02:19;7.43;;;5.10;;
21657;SDS011;10990;48.174;9.782;2023-05-07T09:04:46;5.10;;;4.63;;
21657;SDS011;10990;48.174;9.782;2023-05-07T09:07:13;6.28;;;5.68;;
21657;SDS011;10990;48.174;9.782;2023-05-07T09:09:43;7.55;;;6.20;;
21657;SDS011;10990;48.174;9.782;2023-05-07T09:12:11;6.57;;;5.93;;
21657;SDS011;10990;48.174;9.782;2023-05-07T09:14:38;5.70;;;5.20;;
21657;SDS011;10990;48.174;9.782;2023-05-07T09:17:05;6.20;;;5.60;;
21657;SDS011;10990;48.174;9.782;2023-05-07T09:19:33;5.80;;;4.72;;
21657;SDS011;10990;48.174;9.782;2023-05-07T09:22:03;6.05;;;5.43;;
21657;SDS011;10990;48.174;9.782;2023-05-07T09:24:44;5.70;;;4.85;;
21657;SDS011;10990;48.174;9.782;2023-05-07T09:27:14;5.63;;;5.00;;
21657;SDS011;10990;48.174;9.782;2023-05-07T09:29:43;6.53;;;5.93;;
21657;SDS011;10990;48.174;9.782;2023-05-07T09:32:10;6.30;;;5.70;;
21657;SDS011;10990;48.174;9.782;2023-05-07T09:34:39;5.95;;;5.22;;
21657;SDS011;10990;48.174;9.782;2023-05-07T09:37:06;6.28;;;5.53;;
21657;SDS011;10990;48.174;9.782;2023-05-07T09:39:40;6.90;;;6.30;;
21657;SDS011;10990;48.174;9.782;2023-05-07T09:42:08;5.47;;;4.45;;
21657;SDS011;10990;48.174;9.782;2023-05-07T09:44:35;7.75;;;7.03;;
21657;SDS011;10990;48.174;9.782;2023-05-07T09:47:05;6.68;;;6.07;;
21657;SDS011;10990;48.174;9.782;2023-05-07T09:49:39;7.15;;;6.43;;
21657;SDS011;10990;48.174;9.782;2023-05-07T09:52:10;5.72;;;5.22;;
21657;SDS011;10990;48.174;9.782;2023-05-07T09:54:45;6.15;;;5.50;;
21657;SDS011;10990;48.174;9.782;2023-05-07T09:57:15;6.80;;;5.88;;
21657;SDS011;10990;48.174;9.782;2023-05-07T09:59:48;5.53;;;4.88;;
21657;SDS011;10990;48.174;9.782;2023-05-07T10:02:19;6.32;;;5.72;;
21657;SDS011;10990;48.174;9.782;2023-05-07T10:04:52;7.20;;;6.50;;
21657;SDS011;10990;48.174;9.782;2023-05-07T10:07:26;6.60;;;6.00;;
21657;SDS011;10990;48.174;9.782;2023-05-07T10:09:57;4.47;;;4.07;;
21657;SDS011;10990;48.174;9.782;2023-05-07T10:12:34;4.50;;;4.20;;
21657;SDS011;10990;48.174;9.782;2023-05-07T10:15:06;3.90;;;3.50;;
21657;SDS011;10990;48.174;9.782;2023-05-07T10:17:34;4.75;;;4.13;;
21657;SDS011;10990;48.174;9.782;2023-05-07T10:20:03;6.07;;;4.50;;
21657;SDS011;10990;48.174;9.782;2023-05-07T10:22:32;5.80;;;5.00;;
21657;SDS011;10990;48.174;9.782;2023-05-07T10:25:09;6.88;;;4.88;;
21657;SDS011;10990;48.174;9.782;2023-05-07T10:27:43;5.75;;;4.15;;
21657;SDS011;10990;48.174;9.782;2023-05-07T10:30:15;5.03;;;4.63;;
21657;SDS011;10990;48.174;9.782;2023-05-07T10:32:50;3.58;;;3.28;;
21657;SDS011;10990;48.174;9.782;2023-05-07T10:35:29;4.40;;;3.70;;
21657;SDS011;10990;48.174;9.782;2023-05-07T10:38:00;3.33;;;3.00;;
21657;SDS011;10990;48.174;9.782;2023-05-07T10:40:30;3.70;;;3.33;;
21657;SDS011;10990;48.174;9.782;2023-05-07T10:42:59;4.22;;;3.20;;
21657;SDS011;10990;48.174;9.782;2023-05-07T10:45:30;4.30;;;2.88;;
21657;SDS011;10990;48.174;9.782;2023-05-07T10:48:06;4.68;;;3.13;;
21657;SDS011;10990;48.174;9.782;2023-05-07T10:50:35;3.30;;;3.00;;
21657;SDS011;10990;48.174;9.782;2023-05-07T10:53:22;3.25;;;2.95;;
21657;SDS011;10990;48.174;9.782;2023-05-07T10:56:24;3.45;;;2.80;;
21657;SDS011;10990;48.174;9.782;2023-05-07T11:02:14;3.58;;;2.90;;
21657;SDS011;10990;48.174;9.782;2023-05-07T11:04:49;4.65;;;2.72;;
21657;SDS011;10990;48.174;9.782;2023-05-07T11:07:54;2.50;;;2.30;;
21657;SDS011;10990;48.174;9.782;2023-05-07T11:10:39;3.75;;;2.55;;
21657;SDS011;10990;48.174;9.782;2023-05-07T11:16:16;4.90;;;2.67;;
21657;SDS011;10990;48.174;9.782;2023-05-07T11:18:48;2.63;;;2.40;;
21657;SDS011;10990;48.174;9.782;2023-05-07T11:21:33;2.63;;;2.30;;
21657;SDS011;10990;48.174;9.782;2023-05-07T11:24:11;2.42;;;2.17;;
21657;SDS011;10990;48.174;9.782;2023-05-07T11:26:51;3.22;;;2.30;;
21657;SDS011;10990;48.174;9.782;2023-05-07T11:29:21;2.38;;;2.17;;
21657;SDS011;10990;48.174;9.782;2023-05-07T11:31:51;2.97;;;2.78;;
21657;SDS011;10990;48.174;9.782;2023-05-07T11:34:20;3.58;;;2.33;;
21657;SDS011;10990;48.174;9.782;2023-05-07T11:36:48;3.70;;;2.42;;
21657;SDS011;10990;48.174;9.782;2023-05-07T11:39:27;3.63;;;2.30;;
21657;SDS011;10990;48.174;9.782;2023-05-07T11:41:55;3.17;;;2.55;;
21657;SDS011;10990;48.174;9.782;2023-05-07T11:44:22;2.65;;;2.30;;
21657;SDS011;10990;48.174;9.782;2023-05-07T11:46:48;4.80;;;2.28;;
21657;SDS011;10990;48.174;9.782;2023-05-07T11:49:15;2.63;;;2.10;;
21657;SDS011;10990;48.174;9.782;2023-05-07T11:51:43;2.80;;;2.60;;
21657;SDS011;10990;48.174;9.782;2023-05-07T11:54:11;4.00;;;2.80;;
21657;SDS011;10990;48.174;9.782;2023-05-07T11:56:43;4.10;;;2.60;;
21657;SDS011;10990;48.174;9.782;2023-05-07T11:59:12;3.08;;;2.40;;
21657;SDS011;10990;48.174;9.782;2023-05-07T12:01:45;2.78;;;2.55;;
21657;SDS011;10990;48.174;9.782;2023-05-07T12:04:12;3.10;;;2.25;;
21657;SDS011;10990;48.174;9.782;2023-05-07T12:06:38;2.97;;;2.13;;
21657;SDS011;10990;48.174;9.782;2023-05-07T12:09:05;2.60;;;2.40;;
21657;SDS011;10990;48.174;9.782;2023-05-07T12:11:36;2.97;;;2.50;;
21657;SDS011;10990;48.174;9.782;2023-05-07T12:14:06;4.18;;;2.75;;
21657;SDS011;10990;48.174;9.782;2023-05-07T12:16:32;3.38;;;2.28;;
21657;SDS011;10990;48.174;9.782;2023-05-07T12:19:00;2.83;;;2.10;;
21657;SDS011;10990;48.174;9.782;2023-05-07T12:21:26;2.47;;;2.00;;
21657;SDS011;10990;48.174;9.782;2023-05-07T12:23:53;2.53;;;2.20;;
21657;SDS011;10990;48.174;9.782;2023-05-07T12:26:20;3.67;;;2.30;;
21657;SDS011;10990;48.174;9.782;2023-05-07T12:28:49;5.78;;;2.60;;
21657;SDS011;10990;48.174;9.782;2023-05-07T12:31:17;2.70;;;2.50;;
21657;SDS011;10990;48.174;9.782;2023-05-07T12:33:44;2.45;;;2.25;;
21657;SDS011;10990;48.174;9.782;2023-05-07T12:36:12;2.53;;;2.00;;
21657;SDS011;10990;48.174;9.782;2023-05-07T12:38:39;2.28;;;2.08;;
21657;SDS011;10990;48.174;9.782;2023-05-07T12:41:07;3.72;;;2.47;;
21657;SDS011;10990;48.174;9.782;2023-05-07T12:43:35;4.32;;;2.30;;
21657;SDS011;10990;48.174;9.782;2023-05-07T12:46:03;2.35;;;2.15;;
21657;SDS011;10990;48.174;9.782;2023-05-07T12:48:32;2.60;;;2.13;;
21657;SDS011;10990;48.174;9.782;2023-05-07T12:50:59;2.47;;;1.95;;
21657;SDS011;10990;48.174;9.782;2023-05-07T12:53:27;2.78;;;2.20;;
21657;SDS011;10990;48.174;9.782;2023-05-07T12:55:55;3.13;;;2.20;;
21657;SDS011;10990;48.174;9.782;2023-05-07T12:58:24;2.53;;;2.30;;
21657;SDS011;10990;48.174;9.782;2023-05-07T13:00:52;3.80;;;2.40;;
21657;SDS011;10990;48.174;9.782;2023-05-07T13:03:24;3.88;;;2.30;;
21657;SDS011;10990;48.174;9.782;2023-05-07T13:05:54;2.20;;;2.00;;
21657;SDS011;10990;48.174;9.782;2023-05-07T13:08:28;2.67;;;1.92;;
21657;SDS011;10990;48.174;9.782;2023-05-07T13:10:57;3.35;;;2.20;;
21657;SDS011;10990;48.174;9.782;2023-05-07T13:13:28;3.13;;;2.83;;
21657;SDS011;10990;48.174;9.782;2023-05-07T13:15:54;3.38;;;2.20;;
21657;SDS011;10990;48.174;9.782;2023-05-07T13:18:21;3.55;;;2.15;;
21657;SDS011;10990;48.174;9.782;2023-05-07T13:20:48;3.42;;;2.30;;
21657;SDS011;10990;48.174;9.782;2023-05-07T13:23:16;2.20;;;2.00;;
21657;SDS011;10990;48.174;9.782;2023-05-07T13:25:43;3.00;;;2.05;;
21657;SDS011;10990;48.174;9.782;2023-05-07T13:28:10;2.60;;;2.40;;
21657;SDS011;10990;48.174;9.782;2023-05-07T13:30:37;3.05;;;2.75;;
21657;SDS011;10990;48.174;9.782;2023-05-07T13:33:03;2.60;;;2.35;;
21657;SDS011;10990;48.174;9.782;2023-05-07T13:35:30;2.92;;;2.30;;
21657;SDS011;10990;48.174;9.782;2023-05-07T13:37:57;2.78;;;2.40;;
21657;SDS011;10990;48.174;9.782;2023-05-07T13:40:25;4.40;;;2.15;;
21657;SDS011;10990;48.174;9.782;2023-05-07T13:42:52;2.63;;;2.40;;
21657;SDS011;10990;48.174;9.782;2023-05-07T13:45:19;2.83;;;2.25;;
21657;SDS011;10990;48.174;9.782;2023-05-07T13:47:46;2.28;;;2.08;;
21657;SDS011;10990;48.174;9.782;2023-05-07T13:50:14;4.20;;;2.55;;
21657;SDS011;10990;48.174;9.782;2023-05-07T13:52:42;5.10;;;2.42;;
21657;SDS011;10990;48.174;9.782;2023-05-07T13:55:11;3.55;;;2.47;;
21657;SDS011;10990;48.174;9.782;2023-05-07T13:57:39;2.65;;;2.30;;
21657;SDS011;10990;48.174;9.782;2023-05-07T14:00:06;4.80;;;2.42;;
21657;SDS011;10990;48.174;9.782;2023-05-07T14:02:40;2.70;;;2.10;;
21657;SDS011;10990;48.174;9.782;2023-05-07T14:05:07;5.22;;;2.22;;
21657;SDS011;10990;48.174;9.782;2023-05-07T14:07:35;2.67;;;2.20;;
21657;SDS011;10990;48.174;9.782;2023-05-07T14:10:02;2.92;;;2.08;;
21657;SDS011;10990;48.174;9.782;2023-05-07T14:12:29;4.30;;;2.30;;
21657;SDS011;10990;48.174;9.782;2023-05-07T14:14:57;2.92;;;1.90;;
21657;SDS011;10990;48.174;9.782;2023-05-07T14:17:24;5.45;;;2.30;;
21657;SDS011;10990;48.174;9.782;2023-05-07T14:19:52;5.53;;;2.20;;
21657;SDS011;10990;48.174;9.782;2023-05-07T14:22:19;2.40;;;2.20;;
21657;SDS011;10990;48.174;9.782;2023-05-07T14:24:46;3.25;;;2.08;;
21657;SDS011;10990;48.174;9.782;2023-05-07T14:27:13;3.20;;;2.00;;
21657;SDS011;10990;48.174;9.782;2023-05-07T14:29:40;3.33;;;1.98;;
21657;SDS011;10990;48.174;9.782;2023-05-07T14:32:09;5.38;;;2.35;;
21657;SDS011;10990;48.174;9.782;2023-05-07T14:34:35;4.53;;;2.10;;
21657;SDS011;10990;48.174;9.782;2023-05-07T14:37:02;3.63;;;2.10;;
21657;SDS011;10990;48.174;9.782;2023-05-07T14:39:29;3.28;;;2.00;;
21657;SDS011;10990;48.174;9.782;2023-05-07T14:41:56;2.30;;;2.10;;
21657;SDS011;10990;48.174;9.782;2023-05-07T14:44:23;3.25;;;1.90;;
21657;SDS011;10990;48.174;9.782;2023-05-07T14:46:50;6.88;;;2.10;;
21657;SDS011;10990;48.174;9.782;2023-05-07T14:49:18;2.90;;;2.00;;
21657;SDS011;10990;48.174;9.782;2023-05-07T14:51:45;2.10;;;1.85;;
21657;SDS011;10990;48.174;9.782;2023-05-07T14:54:13;3.75;;;2.33;;
21657;SDS011;10990;48.174;9.782;2023-05-07T14:56:40;2.58;;;2.10;;
21657;SDS011;10990;48.174;9.782;2023-05-07T14:59:08;4.13;;;2.10;;
21657;SDS011;10990;48.174;9.782;2023-05-07T15:01:35;2.72;;;1.67;;
21657;SDS011;10990;48.174;9.782;2023-05-07T15:04:02;4.20;;;1.60;;